createdAt,value
2016-02-06T00:00:50.361Z,83.83
2016-02-06T00:01:50.364Z,83.73
2016-02-06T00:02:50.367Z,83.69
2016-02-06T00:03:50.355Z,83.88
2016-02-06T00:04:50.357Z,83.78
2016-02-06T00:05:50.359Z,83.97
2016-02-06T00:06:50.363Z,83.69
2016-02-06T00:07:50.352Z,83.88
2016-02-06T00:08:50.340Z,83.78
2016-02-06T00:09:50.342Z,83.97
2016-02-06T00:10:50.360Z,83.97
2016-02-06T00:11:50.347Z,84.07
2016-02-06T00:12:50.335Z,83.97
2016-02-06T00:13:50.338Z,84.01
2016-02-06T00:14:50.357Z,83.78
2016-02-06T00:15:50.328Z,83.97
2016-02-06T00:16:50.331Z,83.78
2016-02-06T00:17:50.333Z,83.97
2016-02-06T00:18:50.321Z,83.97
2016-02-06T00:19:50.338Z,83.59
2016-02-06T00:20:50.328Z,83.88
2016-02-06T00:21:50.314Z,84.07
2016-02-06T00:22:50.317Z,83.88
2016-02-06T00:23:50.320Z,83.88
2016-02-06T00:24:50.323Z,84.07
2016-02-06T00:25:50.309Z,83.78
2016-02-06T00:26:50.313Z,83.78
2016-02-06T00:27:50.300Z,83.78
2016-02-06T00:28:50.303Z,83.97
2016-02-06T00:29:50.305Z,83.59
2016-02-06T00:30:50.309Z,83.97
2016-02-06T00:31:50.295Z,84.07
2016-02-06T00:32:50.298Z,83.31
2016-02-06T00:33:50.306Z,83.5
2016-02-06T00:34:50.137Z,83.22
2016-02-06T00:35:50.296Z,83.59
2016-02-06T00:36:50.299Z,83.5
2016-02-06T00:37:50.318Z,83.22
2016-02-06T00:38:50.290Z,83.31
2016-02-06T00:39:50.276Z,83.31
2016-02-06T00:40:50.279Z,83.22
2016-02-06T00:41:50.281Z,83.31
2016-02-06T00:42:50.269Z,83.4
2016-02-06T00:43:50.271Z,83.22
2016-02-06T00:44:50.274Z,83.5
2016-02-06T00:45:50.265Z,83.5
2016-02-06T00:46:50.283Z,83.97
2016-02-06T00:47:50.302Z,83.88
2016-02-06T00:48:50.273Z,83.22
2016-02-06T00:49:50.260Z,83.88
2016-02-06T00:50:50.263Z,83.4
2016-02-06T00:51:50.249Z,83.78
2016-02-06T00:52:50.252Z,84.26
2016-02-06T00:53:50.256Z,84.36
2016-02-06T00:54:50.258Z,84.26
2016-02-06T00:55:50.261Z,83.97
2016-02-06T00:56:50.249Z,83.69
2016-02-06T00:57:50.235Z,83.88
2016-02-06T00:58:50.238Z,83.88
2016-02-06T00:59:50.241Z,83.59
2016-02-06T01:00:50.228Z,83.97
2016-02-06T01:01:50.231Z,83.59
2016-02-06T01:02:50.233Z,83.88
2016-02-06T01:03:50.226Z,84.07
2016-02-06T01:04:50.269Z,84.07
2016-02-06T01:05:50.231Z,84.31
2016-02-06T01:06:50.219Z,84.36
2016-02-06T01:07:50.222Z,84.31
2016-02-06T01:08:50.225Z,84.22
2016-02-06T01:09:50.213Z,84.22
2016-02-06T01:10:50.216Z,84.22
2016-02-06T01:11:50.202Z,84.5
2016-02-06T01:12:50.204Z,84.88
2016-02-06T01:13:50.208Z,84.31
2016-02-06T01:14:50.227Z,83.69
2016-02-06T01:15:50.214Z,84.12
2016-02-06T01:16:50.185Z,84.41
2016-02-06T01:17:50.193Z,84.31
2016-02-06T01:18:50.180Z,83.94
2016-02-06T01:19:50.213Z,83.94
2016-02-06T01:20:50.185Z,84.41
2016-02-06T01:21:50.172Z,84.5
2016-02-06T01:22:50.174Z,84.5
2016-02-06T01:23:50.177Z,84.5
2016-02-06T01:24:50.196Z,84.31
2016-02-06T01:25:50.182Z,84.31
2016-02-06T01:26:50.172Z,84.5
2016-02-06T01:27:50.159Z,84.22
2016-02-06T01:28:50.161Z,84.12
2016-02-06T01:29:50.164Z,84.22
2016-02-06T01:30:50.150Z,84.41
2016-02-06T01:31:50.153Z,84.22
2016-02-06T01:32:50.155Z,84.22
2016-02-06T01:33:50.152Z,84.31
2016-02-06T01:34:50.155Z,84.41
2016-02-06T01:35:50.142Z,84.12
2016-02-06T01:36:50.144Z,84.31
2016-02-06T01:37:50.147Z,83.65
2016-02-06T01:38:50.134Z,84.22
2016-02-06T01:39:50.137Z,83.74
2016-02-06T01:40:50.139Z,83.74
2016-02-06T01:41:50.158Z,84.03
2016-02-06T01:42:50.129Z,83.27
2016-02-06T01:43:50.148Z,83.46
2016-02-06T01:44:50.119Z,83.65
2016-02-06T01:45:50.122Z,83.08
2016-02-06T01:46:50.108Z,83.17
2016-02-06T01:47:50.127Z,83.27
2016-02-06T01:48:50.114Z,83.36
2016-02-06T01:49:50.102Z,83.65
2016-02-06T01:50:50.104Z,83.36
2016-02-06T01:51:50.107Z,83.36
2016-02-06T01:52:50.093Z,83.27
2016-02-06T01:53:50.096Z,83.36
2016-02-06T01:54:50.099Z,83.27
2016-02-06T01:55:50.102Z,83.17
2016-02-06T01:56:50.089Z,83.27
2016-02-06T01:57:50.092Z,82.79
2016-02-06T01:58:50.078Z,82.79
2016-02-06T01:59:50.082Z,82.6
2016-02-06T02:00:50.069Z,82.98
2016-02-06T02:01:50.088Z,83.27
2016-02-06T02:02:50.074Z,83.08
2016-02-06T02:03:50.063Z,83.36
2016-02-06T02:04:50.066Z,83.98
2016-02-06T02:05:50.084Z,83.98
2016-02-06T02:06:50.055Z,84.31
2016-02-06T02:07:50.058Z,83.98
2016-02-06T02:08:50.044Z,83.89
2016-02-06T02:09:50.048Z,83.42
2016-02-06T02:10:50.050Z,83.23
2016-02-06T02:11:50.038Z,83.42
2016-02-06T02:12:50.040Z,83.13
2016-02-06T02:13:50.030Z,83.61
2016-02-06T02:14:50.048Z,83.13
2016-02-06T02:15:50.019Z,83.13
2016-02-06T02:16:50.022Z,83.04
2016-02-06T02:17:50.024Z,83.13
2016-02-06T02:18:50.027Z,83.61
2016-02-06T02:19:50.015Z,83.13
2016-02-06T02:20:50.018Z,83.42
2016-02-06T02:21:50.002Z,83.13
2016-02-06T02:22:50.004Z,83.32
2016-02-06T02:23:49.992Z,83.23
2016-02-06T02:24:49.994Z,83.7
2016-02-06T02:25:50.000Z,84.08
2016-02-06T02:26:50.004Z,83.98
2016-02-06T02:27:49.991Z,84.36
2016-02-06T02:28:49.994Z,84.27
2016-02-06T02:29:49.980Z,84.27
2016-02-06T02:30:49.972Z,84.08
2016-02-06T02:31:49.977Z,84.74
2016-02-06T02:32:49.964Z,84.74
2016-02-06T02:33:49.964Z,84.46
2016-02-06T02:34:49.951Z,84.27
2016-02-06T02:35:49.970Z,84.08
2016-02-06T02:36:49.956Z,84.27
2016-02-06T02:37:49.944Z,84.55
2016-02-06T02:38:49.947Z,84.36
2016-02-06T02:39:49.934Z,84.65
2016-02-06T02:40:49.937Z,84.08
2016-02-06T02:41:49.925Z,84.74
2016-02-06T02:42:49.927Z,84.36
2016-02-06T02:43:49.930Z,84.55
2016-02-06T02:44:49.917Z,84.17
2016-02-06T02:45:49.920Z,84.17
2016-02-06T02:46:49.924Z,84.17
2016-02-06T02:47:49.911Z,83.98
2016-02-06T02:48:49.897Z,84.08
2016-02-06T02:49:49.900Z,83.98
2016-02-06T02:50:49.902Z,84.08
2016-02-06T02:51:49.890Z,83.98
2016-02-06T02:52:49.893Z,83.89
2016-02-06T02:53:49.896Z,83.8
2016-02-06T02:54:49.882Z,84.08
2016-02-06T02:55:49.885Z,83.94
2016-02-06T02:56:49.872Z,83.89
2016-02-06T02:57:49.860Z,83.85
2016-02-06T02:58:49.862Z,84.36
2016-02-06T02:59:49.866Z,84.36
2016-02-06T03:00:49.852Z,84.51
2016-02-06T03:01:49.855Z,84.04
2016-02-06T03:02:49.843Z,84.89
2016-02-06T03:03:49.866Z,84.23
2016-02-06T03:04:49.837Z,84.51
2016-02-06T03:05:49.856Z,84.51
2016-02-06T03:06:49.827Z,84.8
2016-02-06T03:07:49.831Z,84.61
2016-02-06T03:08:49.819Z,84.61
2016-02-06T03:09:49.821Z,84.99
2016-02-06T03:10:49.824Z,84.8
2016-02-06T03:11:49.827Z,85.08
2016-02-06T03:12:49.798Z,84.89
2016-02-06T03:13:49.786Z,84.8
2016-02-06T03:14:49.805Z,85.17
2016-02-06T03:15:49.808Z,84.7
2016-02-06T03:16:49.779Z,84.8
2016-02-06T03:17:49.783Z,84.7
2016-02-06T03:18:49.785Z,85.17
2016-02-06T03:19:49.773Z,85.36
2016-02-06T03:20:49.776Z,85.08
2016-02-06T03:21:49.764Z,85.55
2016-02-06T03:22:49.781Z,85.55
2016-02-06T03:23:49.754Z,85.46
2016-02-06T03:24:49.756Z,85.74
2016-02-06T03:25:49.744Z,85.55
2016-02-06T03:26:49.746Z,85.36
2016-02-06T03:27:49.734Z,85.74
2016-02-06T03:28:49.737Z,85.36
2016-02-06T03:29:49.740Z,85.17
2016-02-06T03:30:49.726Z,85.55
2016-02-06T03:31:49.714Z,85.55
2016-02-06T03:32:49.719Z,85.17
2016-02-06T03:33:49.722Z,85.27
2016-02-06T03:34:49.708Z,85.55
2016-02-06T03:35:49.712Z,85.17
2016-02-06T03:36:49.698Z,85.27
2016-02-06T03:37:49.702Z,85.27
2016-02-06T03:38:49.532Z,84.99
2016-02-06T03:39:49.691Z,85.36
2016-02-06T03:40:49.681Z,84.89
2016-02-06T03:41:49.684Z,84.7
2016-02-06T03:42:49.671Z,84.8
2016-02-06T03:43:49.674Z,84.89
2016-02-06T03:44:49.661Z,84.89
2016-02-06T03:45:49.664Z,84.8
2016-02-06T03:46:49.651Z,84.8
2016-02-06T03:47:49.653Z,84.7
2016-02-06T03:48:49.640Z,84.13
2016-02-06T03:49:49.643Z,84.42
2016-02-06T03:50:49.645Z,84.51
2016-02-06T03:51:49.633Z,84.8
2016-02-06T03:52:49.620Z,84.32
2016-02-06T03:53:49.625Z,84.42
2016-02-06T03:54:49.613Z,84.23
2016-02-06T03:55:49.631Z,84.13
2016-02-06T03:56:49.602Z,84.13
2016-02-06T03:57:49.605Z,84.42
2016-02-06T03:58:49.608Z,84.13
2016-02-06T03:59:49.594Z,84.04
2016-02-06T04:00:49.585Z,84.04
2016-02-06T04:01:49.591Z,84.51
2016-02-06T04:02:49.577Z,84.32
2016-02-06T04:03:49.580Z,84.42
2016-02-06T04:04:49.567Z,84.32
2016-02-06T04:05:49.572Z,84.32
2016-02-06T04:06:49.560Z,84.8
2016-02-06T04:07:49.563Z,84.42
2016-02-06T04:08:49.550Z,84.8
2016-02-06T04:09:49.552Z,84.13
2016-02-06T04:10:49.539Z,84.32
2016-02-06T04:11:49.542Z,84.42
2016-02-06T04:12:49.545Z,84.32
2016-02-06T04:13:49.518Z,84.61
2016-02-06T04:14:49.521Z,84.13
2016-02-06T04:15:49.523Z,84.32
2016-02-06T04:16:49.526Z,84.23
2016-02-06T04:17:49.513Z,84.23
2016-02-06T04:18:49.504Z,84.23
2016-02-06T04:19:49.506Z,84.51
2016-02-06T04:20:49.509Z,83.94
2016-02-06T04:21:49.513Z,83.56
2016-02-06T04:22:49.484Z,83.94
2016-02-06T04:23:49.486Z,83.75
2016-02-06T04:24:49.475Z,83.85
2016-02-06T04:25:49.477Z,84.23
2016-02-06T04:26:49.480Z,83.75
2016-02-06T04:27:49.466Z,84.04
2016-02-06T04:28:49.454Z,84.13
2016-02-06T04:29:49.458Z,83.94
2016-02-06T04:30:49.446Z,83.94
2016-02-06T04:31:49.448Z,83.85
2016-02-06T04:32:49.435Z,83.75
2016-02-06T04:33:49.438Z,83.85
2016-02-06T04:34:49.426Z,83.85
2016-02-06T04:35:49.428Z,83.94
2016-02-06T04:36:49.431Z,83.75
2016-02-06T04:37:49.433Z,83.75
2016-02-06T04:38:49.421Z,84.23
2016-02-06T04:39:49.408Z,83.71
2016-02-06T04:40:49.396Z,84.09
2016-02-06T04:41:49.398Z,84.38
2016-02-06T04:42:49.385Z,84.23
2016-02-06T04:43:49.388Z,84.19
2016-02-06T04:44:49.391Z,84.19
2016-02-06T04:45:49.377Z,84.09
2016-02-06T04:46:49.396Z,84.38
2016-02-06T04:47:49.368Z,84.28
2016-02-06T04:48:49.371Z,84.38
2016-02-06T04:49:49.358Z,84.47
2016-02-06T04:50:49.346Z,84.85
2016-02-06T04:51:49.348Z,84.75
2016-02-06T04:52:49.337Z,84.85
2016-02-06T04:53:49.340Z,84.75
2016-02-06T04:54:49.329Z,85.17
2016-02-06T04:55:49.348Z,85.04
2016-02-06T04:56:49.320Z,85.13
2016-02-06T04:57:49.322Z,86.36
2016-02-06T04:58:49.304Z,85.99
2016-02-06T04:59:49.307Z,85.51
2016-02-06T05:00:49.310Z,85.23
2016-02-06T05:01:49.296Z,85.32
2016-02-06T05:02:49.299Z,84.85
2016-02-06T05:03:49.286Z,84.75
2016-02-06T05:04:49.290Z,85.61
2016-02-06T05:05:49.276Z,85.51
2016-02-06T05:06:49.264Z,85.04
2016-02-06T05:07:49.283Z,85.42
2016-02-06T05:08:49.271Z,85.13
2016-02-06T05:09:49.273Z,85.7
2016-02-06T05:10:49.245Z,85.42
2016-02-06T05:11:49.247Z,85.89
2016-02-06T05:12:49.236Z,86.08
2016-02-06T05:13:49.238Z,86.18
2016-02-06T05:14:49.241Z,85.61
2016-02-06T05:15:49.228Z,84.99
2016-02-06T05:16:49.231Z,84.75
2016-02-06T05:17:49.217Z,84.75
2016-02-06T05:18:49.205Z,85.8
2016-02-06T05:19:49.207Z,85.99
2016-02-06T05:20:49.195Z,85.13
2016-02-06T05:21:49.198Z,85.23
2016-02-06T05:22:49.184Z,84.85
2016-02-06T05:23:49.187Z,84.66
2016-02-06T05:24:49.175Z,84.09
2016-02-06T05:25:49.181Z,84.28
2016-02-06T05:26:49.168Z,84.28
2016-02-06T05:27:49.170Z,84.38
2016-02-06T05:28:48.996Z,84.85
2016-02-06T05:29:49.156Z,84.66
2016-02-06T05:30:49.160Z,84.75
2016-02-06T05:31:49.146Z,84.19
2016-02-06T05:32:49.148Z,84.94
2016-02-06T05:33:49.137Z,84.94
2016-02-06T05:34:49.140Z,84.85
2016-02-06T05:35:49.128Z,84.47
2016-02-06T05:36:49.115Z,84.66
2016-02-06T05:37:49.117Z,84.47
2016-02-06T05:38:49.103Z,84.56
2016-02-06T05:39:49.122Z,84.47
2016-02-06T05:40:49.095Z,84.75
2016-02-06T05:41:49.100Z,84.38
2016-02-06T05:42:49.102Z,84
2016-02-06T05:43:49.089Z,84
2016-02-06T05:44:49.076Z,84.28
2016-02-06T05:45:49.079Z,84.28
2016-02-06T05:46:49.082Z,84.66
2016-02-06T05:47:49.054Z,84.94
2016-02-06T05:48:49.058Z,84.85
2016-02-06T05:49:49.060Z,84.85
2016-02-06T05:50:49.048Z,85.13
2016-02-06T05:51:49.051Z,84.85
2016-02-06T05:52:49.037Z,85.89
2016-02-06T05:53:49.042Z,86.18
2016-02-06T05:54:49.029Z,86.08
2016-02-06T05:55:49.031Z,85.89
2016-02-06T05:56:49.019Z,85.23
2016-02-06T05:57:49.037Z,85.04
2016-02-06T05:58:49.004Z,84.94
2016-02-06T05:59:49.165Z,84.66
2016-02-06T06:00:49.012Z,84.19
2016-02-06T06:01:48.986Z,84.09
2016-02-06T06:02:48.988Z,84.47
2016-02-06T06:03:48.835Z,84.47
2016-02-06T06:04:48.993Z,84.38
2016-02-06T06:05:48.980Z,84.56
2016-02-06T06:06:48.983Z,84.38
2016-02-06T06:07:49.002Z,84.47
2016-02-06T06:08:49.004Z,84.47
2016-02-06T06:09:49.069Z,84.75
2016-02-06T06:10:48.946Z,84.56
2016-02-06T06:11:48.949Z,84.66
2016-02-06T06:12:49.062Z,85.04
2016-02-06T06:13:51.096Z,85.23
2016-02-06T06:14:53.020Z,85.13
2016-02-06T06:15:48.929Z,85.89
2016-02-06T06:16:50.556Z,85.13
2016-02-06T06:17:48.919Z,85.23
2016-02-06T06:18:48.906Z,86.08
2016-02-06T06:19:48.896Z,86.08
2016-02-06T06:20:50.273Z,86.46
2016-02-06T06:21:49.371Z,86.08
2016-02-06T06:22:49.733Z,86.18
2016-02-06T06:23:50.127Z,85.8
2016-02-06T06:24:48.879Z,85.61
2016-02-06T06:25:48.882Z,85.51
2016-02-06T06:26:48.869Z,85.61
2016-02-06T06:27:48.876Z,84.94
2016-02-06T06:28:48.847Z,85.61
2016-02-06T06:29:48.854Z,85.61
2016-02-06T06:30:48.840Z,86.03
2016-02-06T06:31:48.843Z,86.08
2016-02-06T06:32:48.830Z,85.65
2016-02-06T06:33:48.833Z,85.93
2016-02-06T06:34:48.820Z,86.31
2016-02-06T06:35:48.823Z,85.46
2016-02-06T06:36:48.825Z,85.32
2016-02-06T06:37:48.843Z,85.17
2016-02-06T06:38:48.831Z,85.27
2016-02-06T06:39:48.803Z,84.8
2016-02-06T06:40:48.790Z,85.08
2016-02-06T06:41:48.793Z,84.89
2016-02-06T06:42:48.796Z,85.36
2016-02-06T06:43:48.783Z,85.08
2016-02-06T06:44:48.770Z,85.27
2016-02-06T06:45:48.788Z,84.99
2016-02-06T06:46:48.759Z,84.8
2016-02-06T06:47:48.750Z,85.17
2016-02-06T06:48:48.956Z,85.46
2016-02-06T06:49:48.771Z,85.46
2016-02-06T06:50:48.758Z,85.93
2016-02-06T06:51:48.747Z,85.17
2016-02-06T06:52:48.733Z,85.27
2016-02-06T06:53:48.737Z,85.55
2016-02-06T06:54:48.723Z,85.36
2016-02-06T06:55:48.727Z,85.17
2016-02-06T06:56:48.715Z,85.17
2016-02-06T06:57:48.718Z,84.8
2016-02-06T06:58:48.704Z,85.65
2016-02-06T06:59:48.692Z,85.93
2016-02-06T07:00:48.694Z,85.55
2016-02-06T07:01:48.692Z,85.27
2016-02-06T07:02:48.679Z,85.65
2016-02-06T07:03:48.684Z,85.55
2016-02-06T07:04:48.686Z,84.99
2016-02-06T07:05:48.673Z,86.22
2016-02-06T07:06:48.660Z,86.12
2016-02-06T07:07:48.664Z,86.12
2016-02-06T07:08:48.651Z,86.5
2016-02-06T07:09:48.654Z,85.84
2016-02-06T07:10:48.640Z,85.84
2016-02-06T07:11:48.643Z,85.36
2016-02-06T07:12:48.709Z,85.27
2016-02-06T07:13:48.635Z,84.8
2016-02-06T07:14:48.637Z,85.93
2016-02-06T07:15:48.623Z,85.27
2016-02-06T07:16:48.626Z,84.8
2016-02-06T07:17:48.614Z,84.99
2016-02-06T07:18:48.617Z,85.84
2016-02-06T07:19:48.604Z,85.55
2016-02-06T07:20:48.606Z,85.36
2016-02-06T07:21:48.610Z,85.27
2016-02-06T07:22:48.596Z,85.27
2016-02-06T07:23:48.600Z,85.55
2016-02-06T07:24:48.587Z,85.46
2016-02-06T07:25:48.574Z,84.74
2016-02-06T07:26:48.580Z,84.8
2016-02-06T07:27:48.582Z,84.61
2016-02-06T07:28:49.882Z,84.46
2016-02-06T07:29:51.777Z,84.84
2016-02-06T07:30:48.967Z,84.36
2016-02-06T07:31:48.969Z,84.08
2016-02-06T07:32:48.554Z,84.55
2016-02-06T07:33:48.760Z,84.17
2016-02-06T07:34:48.669Z,84.46
2016-02-06T07:35:48.641Z,84.36
2016-02-06T07:36:48.643Z,84.46
2016-02-06T07:37:48.849Z,84.17
2016-02-06T07:38:48.712Z,84.55
2016-02-06T07:39:48.589Z,84.94
2016-02-06T07:40:48.685Z,84.36
2016-02-06T07:41:48.579Z,84.17
2016-02-06T07:42:48.722Z,84.74
2016-02-06T07:43:48.506Z,84.84
2016-02-06T07:44:48.669Z,84.17
2016-02-06T07:45:48.640Z,84.46
2016-02-06T07:46:48.612Z,84.46
2016-02-06T07:47:48.615Z,84.08
2016-02-06T07:48:48.601Z,84.59
2016-02-06T07:49:48.513Z,84.78
2016-02-06T07:50:48.532Z,85.17
2016-02-06T07:51:48.583Z,84.59
2016-02-06T07:52:48.444Z,84.78
2016-02-06T07:53:48.415Z,84.22
2016-02-06T07:54:48.403Z,84.31
2016-02-06T07:55:47.998Z,84.31
2016-02-06T07:56:48.758Z,83.94
2016-02-06T07:57:48.364Z,83.94
2016-02-06T07:58:48.563Z,84.41
2016-02-06T07:59:48.560Z,83.65
2016-02-06T08:00:48.419Z,83.94
2016-02-06T08:01:48.326Z,83.65
2016-02-06T08:02:48.421Z,84.03
2016-02-06T08:03:48.439Z,83.74
2016-02-06T08:04:48.378Z,83.36
2016-02-06T08:05:48.317Z,82.98
2016-02-06T08:06:48.302Z,82.89
2016-02-06T08:07:48.478Z,82.7
2016-02-06T08:08:48.293Z,82.6
2016-02-06T08:09:48.373Z,82.7
2016-02-06T08:10:48.343Z,82.93
2016-02-06T08:11:48.424Z,83.12
2016-02-06T08:12:48.426Z,83.03
2016-02-06T08:13:48.288Z,82.84
2016-02-06T08:14:48.337Z,82.55
2016-02-06T08:15:48.371Z,82.65
2016-02-06T08:16:48.373Z,82.55
2016-02-06T08:17:48.314Z,82.55
2016-02-06T08:18:48.269Z,82.27
2016-02-06T08:19:49.201Z,82.08
2016-02-06T08:20:48.129Z,82.36
2016-02-06T08:21:48.528Z,82.08
2016-02-06T08:22:48.563Z,82.36
2016-02-06T08:23:48.378Z,82.27
2016-02-06T08:24:48.396Z,81.7
2016-02-06T08:25:48.447Z,81.79
2016-02-06T08:26:48.277Z,81.7
2016-02-06T08:27:48.093Z,81.79
2016-02-06T08:28:48.313Z,81.98
2016-02-06T08:29:48.410Z,81.79
2016-02-06T08:30:48.241Z,81.88
2016-02-06T08:31:48.244Z,81.79
2016-02-06T08:32:48.299Z,81.79
2016-02-06T08:33:48.238Z,81.41
2016-02-06T08:34:48.414Z,81.36
2016-02-06T08:35:48.245Z,81.65
2016-02-06T08:36:48.216Z,81.36
2016-02-06T08:37:48.219Z,81.26
2016-02-06T08:38:48.596Z,81.17
2016-02-06T08:39:48.552Z,81.07
2016-02-06T08:40:48.212Z,81.17
2016-02-06T08:41:48.223Z,81.17
2016-02-06T08:42:48.288Z,81.07
2016-02-06T08:43:48.274Z,81.65
2016-02-06T08:44:48.230Z,80.51
2016-02-06T08:45:48.297Z,80.88
2016-02-06T08:46:48.208Z,80.6
2016-02-06T08:47:48.211Z,80.41
2016-02-06T08:48:48.260Z,80.51
2016-02-06T08:49:48.263Z,80.6
2016-02-06T08:50:48.375Z,80.41
2016-02-06T08:51:48.270Z,80.32
2016-02-06T08:52:48.257Z,80.51
2016-02-06T08:53:48.385Z,80.88
2016-02-06T08:54:48.203Z,80.6
2016-02-06T08:55:48.206Z,80.6
2016-02-06T08:56:48.193Z,80.51
2016-02-06T08:57:48.195Z,80.74
2016-02-06T08:58:48.432Z,80.51
2016-02-06T08:59:48.201Z,80.55
2016-02-06T09:00:48.187Z,80.35
2016-02-06T09:01:48.194Z,79.97
2016-02-06T09:02:48.245Z,80.64
2016-02-06T09:03:48.185Z,80.45
2016-02-06T09:04:48.197Z,79.88
2016-02-06T09:05:48.185Z,79.88
2016-02-06T09:06:48.266Z,79.5
2016-02-06T09:07:48.175Z,79.41
2016-02-06T09:08:48.194Z,79.03
2016-02-06T09:09:48.463Z,79.69
2016-02-06T09:10:48.185Z,80.16
2016-02-06T09:11:48.375Z,79.5
2016-02-06T09:12:48.237Z,79.6
2016-02-06T09:13:48.192Z,79.88
2016-02-06T09:14:48.321Z,79.31
2016-02-06T09:15:48.229Z,79.22
2016-02-06T09:16:48.405Z,79.31
2016-02-06T09:17:48.174Z,79.5
2016-02-06T09:18:48.270Z,79.5
2016-02-06T09:19:48.225Z,79.12
2016-02-06T09:20:48.250Z,79.31
2016-02-06T09:21:48.237Z,79.22
2016-02-06T09:22:48.318Z,79.22
2016-02-06T09:23:48.289Z,78.83
2016-02-06T09:24:48.246Z,79.69
2016-02-06T09:25:48.311Z,78.83
2016-02-06T09:26:48.205Z,79.03
2016-02-06T09:27:48.161Z,79.03
2016-02-06T09:29:48.167Z,79.22
2016-02-06T09:30:48.170Z,78.83
2016-02-06T09:31:48.641Z,78.83
2016-02-06T09:32:48.612Z,78.55
2016-02-06T09:33:48.225Z,77.7
2016-02-06T09:34:48.212Z,78.64
2016-02-06T09:35:48.169Z,77.31
2016-02-06T09:36:48.327Z,77.98
2016-02-06T09:37:48.299Z,77.92
2016-02-06T09:38:48.271Z,78.78
2016-02-06T09:39:48.210Z,77.36
2016-02-06T09:40:48.277Z,77.26
2016-02-06T09:41:48.201Z,77.26
2016-02-06T09:42:48.266Z,77.36
2016-02-06T09:43:48.317Z,77.36
2016-02-06T09:44:48.320Z,77.45
2016-02-06T09:45:48.228Z,77.36
2016-02-06T09:46:48.200Z,77.45
2016-02-06T09:47:48.250Z,76.97
2016-02-06T09:48:48.237Z,76.59
2016-02-06T09:49:48.208Z,76.69
2016-02-06T09:50:48.274Z,76.88
2016-02-06T09:51:48.292Z,77.36
2016-02-06T09:52:48.296Z,76.92
2016-02-06T09:53:48.204Z,76.35
2016-02-06T09:54:48.270Z,76.92
2016-02-06T09:55:48.209Z,76.82
2016-02-06T09:56:48.150Z,76.44
2016-02-06T09:57:48.200Z,76.44
2016-02-06T09:58:48.249Z,76.44
2016-02-06T09:59:48.220Z,75.87
2016-02-06T10:00:48.286Z,76.44
2016-02-06T10:01:48.225Z,76.35
2016-02-06T10:02:48.205Z,75.78
2016-02-06T10:03:48.269Z,75.78
2016-02-06T10:04:48.163Z,75.78
2016-02-06T10:05:48.104Z,75.78
2016-02-06T10:06:48.293Z,75.59
2016-02-06T10:07:48.155Z,75.78
2016-02-06T10:08:48.205Z,75.4
2016-02-06T10:09:48.365Z,75.62
2016-02-06T10:10:48.274Z,75.15
2016-02-06T10:11:48.166Z,72.86
2016-02-06T10:12:48.169Z,73.91
2016-02-06T10:13:48.157Z,73.91
2016-02-06T10:14:48.630Z,74.67
2016-02-06T10:15:48.413Z,73.91
2016-02-06T10:16:48.325Z,73.63
2016-02-06T10:17:48.250Z,73.91
2016-02-06T10:18:48.190Z,72.67
2016-02-06T10:19:48.161Z,73.82
2016-02-06T10:20:48.179Z,73.76
2016-02-06T10:21:48.322Z,72.58
2016-02-06T10:22:48.174Z,73.1
2016-02-06T10:23:48.270Z,73.66
2016-02-06T10:24:48.179Z,73.1
2016-02-06T10:25:48.244Z,72.81
2016-02-06T10:26:48.371Z,73.38
2016-02-06T10:27:48.250Z,73.1
2016-02-06T10:28:48.284Z,72.71
2016-02-06T10:29:48.193Z,72.42
2016-02-06T10:30:48.368Z,73
2016-02-06T10:31:48.309Z,73.1
2016-02-06T10:32:48.405Z,72.42
2016-02-06T10:33:48.283Z,72.71
2016-02-06T10:34:48.442Z,72.62
2016-02-06T10:35:48.258Z,72.9
2016-02-06T10:36:48.276Z,73.1
2016-02-06T10:37:48.264Z,73.1
2016-02-06T10:38:48.203Z,73.32
2016-02-06T10:39:48.284Z,73.19
2016-02-06T10:40:48.396Z,72.71
2016-02-06T10:41:48.383Z,71.42
2016-02-06T10:42:48.215Z,72.05
2016-02-06T10:43:48.359Z,72.17
2016-02-06T10:44:48.220Z,72.56
2016-02-06T10:45:48.348Z,71.89
2016-02-06T10:46:48.350Z,72.27
2016-02-06T10:47:48.310Z,71.32
2016-02-06T10:48:48.361Z,72.65
2016-02-06T10:49:48.316Z,72.46
2016-02-06T10:50:48.288Z,71.89
2016-02-06T10:51:48.369Z,73.03
2016-02-06T10:52:48.387Z,72.94
2016-02-06T10:53:48.469Z,72.46
2016-02-06T10:54:48.252Z,72.65
2016-02-06T10:55:48.256Z,72.46
2016-02-06T10:56:48.258Z,72.85
2016-02-06T10:57:48.558Z,72.27
2016-02-06T10:58:48.639Z,72.94
2016-02-06T10:59:48.271Z,73.41
2016-02-06T11:00:48.273Z,73.32
2016-02-06T11:01:48.276Z,72.46
2016-02-06T11:02:48.279Z,72.17
2016-02-06T11:03:48.283Z,72.46
2016-02-06T11:04:48.285Z,72.37
2016-02-06T11:05:48.288Z,72.27
2016-02-06T11:06:48.290Z,72.37
2016-02-06T11:07:48.293Z,72.37
2016-02-06T11:08:48.299Z,71.51
2016-02-06T11:09:48.302Z,71.89
2016-02-06T11:10:48.304Z,71.32
2016-02-06T11:11:48.308Z,71.51
2016-02-06T11:12:48.310Z,71.42
2016-02-06T11:13:48.313Z,71.32
2016-02-06T11:14:48.316Z,70.84
2016-02-06T11:15:48.303Z,71.32
2016-02-06T11:16:48.321Z,71.8
2016-02-06T11:17:48.324Z,71.51
2016-02-06T11:18:48.326Z,71.45
2016-02-06T11:19:48.330Z,71.89
2016-02-06T11:20:48.332Z,71.55
2016-02-06T11:21:48.335Z,71.32
2016-02-06T11:22:48.337Z,71.32
2016-02-06T11:23:48.340Z,71.17
2016-02-06T11:24:48.360Z,70.88
2016-02-06T11:25:48.347Z,70.88
2016-02-06T11:26:48.349Z,70.78
2016-02-06T11:27:48.364Z,71.07
2016-02-06T11:28:48.366Z,71.36
2016-02-06T11:29:48.373Z,71.36
2016-02-06T11:30:48.375Z,70.59
2016-02-06T11:31:48.378Z,70.4
2016-02-06T11:32:48.395Z,70.5
2016-02-06T11:33:48.383Z,70.78
2016-02-06T11:34:48.387Z,70.69
2016-02-06T11:35:48.576Z,70.59
2016-02-06T11:36:48.392Z,70.69
2016-02-06T11:37:48.397Z,70.78
2016-02-06T11:38:48.401Z,70.59
2016-02-06T11:39:48.404Z,70.78
2016-02-06T11:40:48.406Z,70.4
2016-02-06T11:41:48.409Z,70.31
2016-02-06T11:42:48.411Z,69.83
2016-02-06T11:43:48.414Z,70.21
2016-02-06T11:44:48.433Z,68.4
2016-02-06T11:45:48.420Z,68.3
2016-02-06T11:46:48.422Z,68.5
2016-02-06T11:47:48.424Z,69.17
2016-02-06T11:48:48.444Z,69.07
2016-02-06T11:49:48.447Z,68.02
2016-02-06T11:50:48.434Z,68.4
2016-02-06T11:51:48.453Z,68.4
2016-02-06T11:52:48.439Z,67.83
2016-02-06T11:53:48.442Z,68.3
2016-02-06T11:54:48.758Z,68.5
2016-02-06T11:55:48.479Z,67.93
2016-02-06T11:56:48.466Z,66.97
2016-02-06T11:57:48.532Z,68.69
2016-02-06T11:58:48.472Z,68.59
2016-02-06T11:59:48.476Z,68.4
2016-02-06T12:00:48.479Z,67.93
2016-02-06T12:01:48.481Z,68.59
2016-02-06T12:02:48.485Z,65.83
2016-02-06T12:03:48.488Z,67.55
2016-02-06T12:04:47.741Z,67.45
2016-02-06T12:05:48.509Z,67.64
2016-02-06T12:06:48.496Z,67.64
2016-02-06T12:07:48.514Z,66.69
2016-02-06T12:08:48.502Z,66.97
2016-02-06T12:09:48.521Z,67.16
2016-02-06T12:10:48.527Z,67.35
2016-02-06T12:11:48.529Z,67.26
2016-02-06T12:12:48.532Z,67.26
2016-02-06T12:13:48.534Z,67.93
2016-02-06T12:14:48.537Z,67.07
2016-02-06T12:15:48.544Z,67.16
2016-02-06T12:16:48.547Z,66.11
2016-02-06T12:17:48.549Z,65.73
2016-02-06T12:18:48.553Z,66.5
2016-02-06T12:19:48.556Z,66.44
2016-02-06T12:20:48.559Z,65.92
2016-02-06T12:21:48.577Z,67.07
2016-02-06T12:22:48.689Z,65.92
2016-02-06T12:23:48.568Z,66.31
2016-02-06T12:24:48.572Z,65.92
2016-02-06T12:25:48.590Z,65.36
2016-02-06T12:26:48.577Z,66.44
2016-02-06T12:27:48.595Z,67.16
2016-02-06T12:28:48.584Z,65.92
2016-02-06T12:29:48.603Z,67.35
2016-02-06T12:30:48.605Z,66.88
2016-02-06T12:31:48.609Z,65.07
2016-02-06T12:32:48.612Z,66.31
2016-02-06T12:33:48.614Z,65.73
2016-02-06T12:34:48.617Z,66.88
2016-02-06T12:35:48.666Z,67.1
2016-02-06T12:36:48.655Z,67
2016-02-06T12:37:48.641Z,66.82
2016-02-06T12:38:48.629Z,66.82
2016-02-06T12:39:48.646Z,66.82
2016-02-06T12:40:48.635Z,67.29
2016-02-06T12:41:48.652Z,66.63
2016-02-06T12:42:48.640Z,66.82
2016-02-06T12:43:48.657Z,67.39
2016-02-06T12:44:48.660Z,66.72
2016-02-06T12:45:48.679Z,66.72
2016-02-06T12:46:48.665Z,66.44
2016-02-06T12:47:48.668Z,65
2016-02-06T12:48:48.671Z,65.96
2016-02-06T12:49:48.690Z,66.05
2016-02-06T12:50:48.663Z,65
2016-02-06T12:51:48.696Z,65.96
2016-02-06T12:52:48.684Z,66.63
2016-02-06T12:53:48.719Z,66.38
2016-02-06T12:54:48.706Z,66.15
2016-02-06T12:55:48.725Z,66.34
2016-02-06T12:56:48.712Z,66.94